MHROMNBL

Guest
Details From MHRO - Roatan
To MNBL - BLUEFIELDS
Flight Number -
Tags generated
Created
Modified
Stats Distance 373 nm / 690 km
Max Altitude 35,000 ft / 10,668 m
Waypoints 7
Social Downloads 9
Likes 0
Share

Download

Looking for another format? Having issues loading an existing format? Contact us
Advertisement - Login to hide

Notes

Basic altitude profile: - Ascent Rate: 2500ft/min - Ascent Speed: 250kts - Cruise Altitude: 35000ft - Cruise Speed: 420kts - Descent Rate: 1500ft/min - Descent Speed: 250kts Options: - Use NATs: yes - Use PACOTS: yes - Use low airways: no - Use high airways: yes

Route

MHRO AGUAN UR899 PZA UB767 BLU MNBL

ID Type Via Altitude (ft/m) Position (lat/lon) Dist (leg/tot) Name
O MHRO APT - 0 / 0 16.31682 / -86.52296 - / 0 nm Roatan
AGUAN FIX - 23,200 / 7,071 15.89833 / -85.42972 67 / 67 nm
DAVRO FIX UR899 (AWY-HI) 35,000 / 10,668 15.62361 / -84.71472 44 / 112 nm
PLP VOR UR899 (AWY-HI) 35,000 / 10,668 15.25944 / -83.77861 58 / 170 nm
PZA VOR UR899 (AWY-HI) 25,800 / 7,864 14.04522 / -83.38828 76 / 247 nm PUERTO CABEZAS VOR
BLU VOR UB767 (AWY-HI) 18,500 / 5,639 11.99451 / -83.77262 125 / 372 nm BLUEFIELDS VOR-DME
O MNBL APT - 0 / 0 11.99096 / -83.77409 0 / 372 nm BLUEFIELDS

Altitude Profile

Advertisement - Login to hide

Weather


0- 5 10 15 20 25 30 35+ Temperature / °C

Clouds and Precipitation
Forecast for 2021-03-22 12:00 UTC. Updated 2 months ago

Ground ~20,000 ft ~40,000 ft Winds

MHRO

Details ICAO MHRO (RTB)
Name Roatan
Region Honduras
Timezone Unknown
Stats Elevation 18 ft / 5 m (AMSL)
Location 16.316600° -86.523400°
Runways 1
Magnetic Variation 1.880° W

METAR

MHRO 111300Z 09018KT 9999 FEW025 28/26 Q1013 A2992 NOSIG

Decode

TAF

TAF MHRO 111025Z 1112/1212 10020KT 9999 FEW024 TX30/1119Z TN27/1112Z BECMG 1121/1123 08020G30KT

Decode

Departure Runways

ID Width Length Bearing (true/mag) Surface Threshold Overrun Markings Lighting
07 148 ft / 45 m 7,672 ft / 2,338 m 65.02° / 66.90° ASPHALT 518 ft / 158 m 0 ft / 0 m PREC-APP EDGE THRESHOLD
25 148 ft / 45 m 7,672 ft / 2,338 m 245.02° / 246.90° ASPHALT 0 ft / 0 m 0 ft / 0 m PREC-APP EDGE THRESHOLD

MNBL

Details ICAO MNBL (BEF)
Name BLUEFIELDS
Region Nicaragua
Timezone America/Managua (UTC-6.0)
Stats Elevation 41 ft / 12 m (AMSL)
Location 11.991000° -83.774100°
Runways 1
Magnetic Variation 2.812° W

METAR

MNBL 111300Z 07010KT 9999 SCT017 29/26 Q1010

Decode

TAF

Not found

Destination Runways

ID Width Length Bearing (true/mag) Surface Threshold Overrun Markings Lighting
05 98 ft / 30 m 6,631 ft / 2,021 m 56.77° / 59.59° ASPHALT 0 ft / 0 m 0 ft / 0 m APP
23 98 ft / 30 m 6,631 ft / 2,021 m 236.78° / 239.59° ASPHALT 645 ft / 197 m 0 ft / 0 m APP

Popular Alternatives